createdAt,value
2017-12-25T00:14:50.725Z,6.80
2017-12-25T00:34:38.716Z,6.60
2017-12-25T00:37:06.263Z,6.50
2017-12-25T00:39:34.451Z,6.50
2017-12-25T00:42:02.771Z,6.60
2017-12-25T00:44:30.297Z,6.50
2017-12-25T00:46:58.630Z,6.50
2017-12-25T00:49:26.173Z,6.50
2017-12-25T01:09:11.023Z,6.50
2017-12-25T01:11:39.320Z,6.50
2017-12-25T01:14:06.832Z,6.50
2017-12-25T01:16:34.359Z,6.60
2017-12-25T01:19:01.871Z,6.60
2017-12-25T01:21:30.147Z,6.50
2017-12-25T01:23:58.456Z,6.50
2017-12-25T01:26:25.985Z,6.50
2017-12-25T01:28:54.299Z,6.60
2017-12-25T01:48:42.439Z,6.50
2017-12-25T01:51:09.971Z,6.50
2017-12-25T01:53:40.061Z,6.40
2017-12-25T01:56:12.403Z,6.40
2017-12-25T02:15:56.452Z,6.50
2017-12-25T02:35:41.339Z,6.40
2017-12-25T02:38:08.850Z,6.40
2017-12-25T02:40:37.156Z,6.40
2017-12-25T02:43:04.703Z,6.40
2017-12-25T03:02:52.784Z,6.30
2017-12-25T03:22:41.020Z,6.30
2017-12-25T03:25:08.551Z,6.20
2017-12-25T03:27:36.059Z,6.30
2017-12-25T03:30:03.590Z,6.30
2017-12-25T03:32:31.121Z,6.30
2017-12-25T03:34:58.682Z,6.30
2017-12-25T03:37:26.194Z,6.30
2017-12-25T03:39:53.720Z,6.20
2017-12-25T03:42:21.987Z,6.20
2017-12-25T03:44:50.327Z,6.20
2017-12-25T03:47:17.848Z,6.20
2017-12-25T03:49:45.358Z,6.20
2017-12-25T03:52:12.893Z,6.20
2017-12-25T03:54:40.430Z,6.20
2017-12-25T03:57:07.975Z,6.20
2017-12-25T03:59:35.529Z,6.20
2017-12-25T04:02:03.822Z,6.20
2017-12-25T04:04:32.129Z,6.20
2017-12-25T04:06:59.655Z,6.20
2017-12-25T04:09:27.948Z,6.10
2017-12-25T04:11:55.512Z,6.10
2017-12-25T04:14:23.039Z,6.10
2017-12-25T04:16:50.565Z,6.10
2017-12-25T04:19:18.090Z,6.10
2017-12-25T04:21:45.622Z,6.20
2017-12-25T04:24:13.767Z,6.10
2017-12-25T04:26:42.111Z,6.10
2017-12-25T04:29:09.621Z,6.10
2017-12-25T04:31:37.908Z,6.10
2017-12-25T04:34:05.468Z,6.10
2017-12-25T04:36:32.981Z,6.10
2017-12-25T04:39:00.509Z,6.10
2017-12-25T04:41:28.131Z,6.00
2017-12-25T04:43:56.449Z,6.10
2017-12-25T04:46:24.014Z,6.10
2017-12-25T04:48:51.534Z,6.10
2017-12-25T04:51:19.044Z,6.00
2017-12-25T04:53:46.573Z,6.00
2017-12-25T04:56:14.098Z,6.00
2017-12-25T04:58:42.420Z,6.10
2017-12-25T05:01:09.944Z,6.00
2017-12-25T05:03:37.473Z,6.10
2017-12-25T05:06:04.994Z,5.90
2017-12-25T05:08:32.530Z,5.90
2017-12-25T05:11:00.039Z,5.90
2017-12-25T05:13:27.584Z,5.90
2017-12-25T05:15:55.103Z,5.90
2017-12-25T05:18:22.619Z,5.90
2017-12-25T05:20:50.141Z,5.90
2017-12-25T05:23:17.659Z,5.90
2017-12-25T05:25:45.966Z,6.00
2017-12-25T05:28:13.488Z,5.90
2017-12-25T05:30:41.794Z,5.90
2017-12-25T05:33:09.312Z,5.90
2017-12-25T05:35:36.860Z,5.90
2017-12-25T05:38:04.407Z,5.90
2017-12-25T05:40:31.974Z,5.90
2017-12-25T05:42:59.512Z,5.80
2017-12-25T05:45:27.044Z,5.80
2017-12-25T05:47:54.620Z,5.80
2017-12-25T05:50:22.914Z,5.80
2017-12-25T05:52:50.454Z,5.70
2017-12-25T05:55:17.988Z,5.70
2017-12-25T05:57:45.556Z,5.70
2017-12-25T06:00:13.080Z,5.80
2017-12-25T06:02:40.608Z,5.70
2017-12-25T06:05:08.117Z,5.70
2017-12-25T06:07:35.658Z,5.70
2017-12-25T06:10:03.186Z,5.60
2017-12-25T06:12:30.763Z,5.70
2017-12-25T06:14:58.299Z,5.60
2017-12-25T06:17:25.847Z,5.60
2017-12-25T06:19:53.378Z,5.60
2017-12-25T06:22:20.926Z,5.60
2017-12-25T06:24:48.501Z,5.60
2017-12-25T06:27:16.062Z,5.60
2017-12-25T06:29:43.605Z,5.60
2017-12-25T06:32:11.138Z,5.60
2017-12-25T06:34:38.707Z,5.60
2017-12-25T06:37:06.279Z,5.60
2017-12-25T06:39:33.824Z,5.60
2017-12-25T06:42:01.355Z,5.50
2017-12-25T06:44:28.890Z,5.50
2017-12-25T06:46:56.412Z,5.50
2017-12-25T06:49:24.706Z,5.50
2017-12-25T06:51:52.819Z,5.50
2017-12-25T06:54:20.334Z,5.50
2017-12-25T06:56:47.948Z,5.50
2017-12-25T06:59:15.521Z,5.50
2017-12-25T07:01:43.061Z,5.50
2017-12-25T07:04:10.594Z,5.50
2017-12-25T07:06:38.110Z,5.50
2017-12-25T07:09:05.657Z,5.50
2017-12-25T07:11:33.187Z,5.40
2017-12-25T07:14:00.687Z,5.40
2017-12-25T07:16:29.009Z,5.40
2017-12-25T07:18:56.531Z,5.40
2017-12-25T07:21:24.863Z,5.40
2017-12-25T07:23:52.413Z,5.40
2017-12-25T07:26:19.931Z,5.40
2017-12-25T07:28:47.521Z,5.40
2017-12-25T07:31:15.110Z,5.40
2017-12-25T07:33:42.625Z,5.30
2017-12-25T07:36:10.181Z,5.30
2017-12-25T07:38:37.720Z,5.30
2017-12-25T07:41:06.015Z,5.30
2017-12-25T07:43:33.552Z,5.30
2017-12-25T07:46:01.094Z,5.20
2017-12-25T07:48:28.689Z,5.20
2017-12-25T07:50:56.186Z,5.20
2017-12-25T07:53:23.751Z,5.20
2017-12-25T07:55:51.324Z,5.20
2017-12-25T07:58:18.904Z,5.20
2017-12-25T08:00:47.199Z,5.20
2017-12-25T08:03:15.490Z,5.10
2017-12-25T08:05:43.025Z,5.10
2017-12-25T08:08:11.326Z,5.10
2017-12-25T08:10:38.862Z,5.10
2017-12-25T08:13:07.195Z,5.10
2017-12-25T08:15:34.704Z,5.10
2017-12-25T08:18:03.007Z,5.00
2017-12-25T08:20:30.560Z,5.00
2017-12-25T08:22:58.118Z,5.00
2017-12-25T08:25:26.496Z,5.10
2017-12-25T08:27:54.092Z,5.10
2017-12-25T08:30:21.617Z,5.10
2017-12-25T08:32:49.153Z,5.20
2017-12-25T08:35:17.487Z,5.20
2017-12-25T08:37:45.090Z,5.20
2017-12-25T08:40:12.678Z,5.00
2017-12-25T08:42:40.344Z,5.10
2017-12-25T08:45:07.887Z,5.10
2017-12-25T08:47:35.435Z,5.00
2017-12-25T08:50:03.017Z,5.00
2017-12-25T08:52:30.541Z,5.00
2017-12-25T08:54:58.836Z,5.00
2017-12-25T08:57:26.373Z,5.00
2017-12-25T08:59:54.686Z,5.00
2017-12-25T09:19:40.193Z,5.00
2017-12-25T09:22:07.753Z,5.00
2017-12-25T09:24:35.300Z,4.90
2017-12-25T09:27:03.620Z,5.00
2017-12-25T09:29:31.152Z,5.00
2017-12-25T09:49:18.476Z,5.20
2017-12-25T09:51:46.774Z,5.30
2017-12-25T09:54:14.317Z,5.30
2017-12-25T10:14:02.929Z,5.50
2017-12-25T10:33:51.022Z,5.40
2017-12-25T10:36:19.331Z,5.40
2017-12-25T10:56:04.602Z,5.70
2017-12-25T11:15:48.351Z,5.90
2017-12-25T11:35:34.670Z,6.10
2017-12-25T11:38:02.228Z,5.80
2017-12-25T11:40:29.781Z,5.80
2017-12-25T11:42:57.445Z,5.70
2017-12-25T11:45:25.009Z,5.90
2017-12-25T11:47:52.535Z,6.10
2017-12-25T11:50:20.092Z,6.20
2017-12-25T11:52:47.622Z,6.10
2017-12-25T11:55:15.192Z,6.20
2017-12-25T11:57:42.807Z,6.20
2017-12-25T12:00:10.328Z,6.00
2017-12-25T12:02:37.881Z,6.10
2017-12-25T12:05:05.442Z,6.30
2017-12-25T12:24:52.930Z,6.20
2017-12-25T12:44:38.481Z,6.60
2017-12-25T12:47:06.083Z,6.60
2017-12-25T13:06:58.662Z,7.10
2017-12-25T13:26:43.673Z,6.90
2017-12-25T13:29:11.252Z,6.80
2017-12-25T13:48:57.080Z,6.00
2017-12-25T14:08:43.794Z,6.00
2017-12-25T14:11:11.342Z,6.00
2017-12-25T14:13:38.879Z,6.20
2017-12-25T14:16:06.500Z,6.20
2017-12-25T14:18:34.036Z,6.30
2017-12-25T14:21:01.579Z,6.20
2017-12-25T14:23:29.167Z,6.30
2017-12-25T14:25:56.710Z,6.40
2017-12-25T14:45:43.814Z,8.00
2017-12-25T15:05:28.664Z,6.10
2017-12-25T15:07:56.993Z,5.80
2017-12-25T15:10:24.554Z,5.80
2017-12-25T15:12:52.115Z,5.70
2017-12-25T15:15:19.683Z,5.70
2017-12-25T15:17:47.197Z,5.50
2017-12-25T15:20:14.723Z,5.40
2017-12-25T15:22:42.264Z,5.40
2017-12-25T15:25:09.796Z,5.30
2017-12-25T15:27:38.091Z,5.30
2017-12-25T15:30:05.633Z,5.30
2017-12-25T15:32:33.166Z,5.30
2017-12-25T15:35:00.713Z,5.30
2017-12-25T15:54:47.270Z,5.00
2017-12-25T15:57:15.586Z,4.80
2017-12-25T15:59:43.109Z,4.80
2017-12-25T16:02:10.655Z,4.80
2017-12-25T16:04:38.196Z,4.80
2017-12-25T16:44:38.231Z,4.50
2017-12-25T16:47:05.772Z,4.40
2017-12-25T17:06:52.461Z,4.10
2017-12-25T17:09:20.770Z,4.10
2017-12-25T17:11:48.304Z,4.00
2017-12-25T17:14:16.723Z,4.00
2017-12-25T17:16:51.480Z,4.00
2017-12-25T17:19:21.256Z,4.00
2017-12-25T17:39:07.331Z,3.80
2017-12-25T17:41:34.864Z,3.80
2017-12-25T17:44:02.412Z,3.80
2017-12-25T17:46:29.928Z,3.70
2017-12-25T18:06:14.626Z,3.40
2017-12-25T18:08:42.189Z,3.30
2017-12-25T18:11:10.523Z,3.30
2017-12-25T18:30:57.224Z,3.10
2017-12-25T18:33:24.785Z,3.10
2017-12-25T18:53:11.090Z,2.80
2017-12-25T18:55:38.619Z,2.70
2017-12-25T18:58:06.949Z,2.50
2017-12-25T19:00:34.464Z,2.50
2017-12-25T19:03:02.773Z,2.40
2017-12-25T19:05:31.048Z,2.50
2017-12-25T19:07:59.375Z,2.50
2017-12-25T19:27:47.016Z,2.30
2017-12-25T19:30:14.882Z,2.30
2017-12-25T19:32:43.024Z,2.20
2017-12-25T19:52:29.901Z,1.80
2017-12-25T20:18:06.014Z,1.50
2017-12-25T20:20:33.844Z,1.50
2017-12-25T20:23:01.417Z,1.40
2017-12-25T20:25:29.056Z,1.50
2017-12-25T20:27:56.992Z,1.50
2017-12-25T20:30:25.025Z,1.50
2017-12-25T20:32:53.703Z,1.40
2017-12-25T20:35:21.848Z,1.40
2017-12-25T20:37:50.166Z,1.50
2017-12-25T20:40:18.600Z,1.40
2017-12-25T22:08:43.859Z,1.40
2017-12-25T22:11:11.377Z,1.40
2017-12-25T22:13:39.660Z,1.40
2017-12-25T22:16:07.937Z,1.30
2017-12-25T22:18:36.355Z,1.30
2017-12-25T22:21:03.873Z,1.30
2017-12-25T22:23:32.176Z,1.30
2017-12-25T22:25:59.697Z,1.30
2017-12-25T22:28:27.980Z,1.30
2017-12-25T22:30:56.265Z,1.30
2017-12-25T22:33:23.934Z,1.30
2017-12-25T22:35:51.486Z,1.30
2017-12-25T22:38:20.858Z,1.40
2017-12-25T22:40:48.375Z,1.50
2017-12-25T22:43:15.892Z,1.50
2017-12-25T22:45:44.173Z,1.40
2017-12-25T22:48:12.450Z,1.30
2017-12-25T22:50:40.740Z,1.30
2017-12-25T22:53:08.293Z,1.30
2017-12-25T22:55:35.826Z,1.20
2017-12-25T22:58:03.344Z,1.20
2017-12-25T23:00:30.861Z,1.20
2017-12-25T23:02:59.129Z,1.30
2017-12-25T23:05:27.424Z,1.30
2017-12-25T23:07:54.943Z,1.30
2017-12-25T23:10:22.617Z,1.30
2017-12-25T23:12:50.129Z,1.20
2017-12-25T23:15:17.657Z,1.20
2017-12-25T23:17:45.184Z,1.30
2017-12-25T23:20:12.741Z,1.20
2017-12-25T23:22:40.251Z,1.20
2017-12-25T23:25:07.792Z,1.20
2017-12-25T23:27:35.316Z,1.20
2017-12-25T23:30:02.867Z,1.20
2017-12-25T23:32:30.405Z,1.20
2017-12-25T23:34:57.981Z,1.20
2017-12-25T23:37:25.536Z,1.20
2017-12-25T23:39:53.072Z,1.20
2017-12-25T23:42:20.593Z,1.10
2017-12-25T23:44:48.970Z,1.00
2017-12-25T23:47:17.259Z,1.00
2017-12-25T23:49:44.788Z,1.00
2017-12-25T23:52:12.308Z,1.00
2017-12-25T23:54:39.845Z,1.00
2017-12-25T23:57:07.383Z,1.10
2017-12-25T23:59:35.668Z,1.00
